createdAt,value
2017-10-25T00:02:07.671Z,4.17
2017-10-25T00:04:35.142Z,5.00
2017-10-25T00:07:02.603Z,4.03
2017-10-25T00:09:30.863Z,4.00
2017-10-25T00:11:58.327Z,4.60
2017-10-25T00:14:25.788Z,4.63
2017-10-25T00:16:53.267Z,4.97
2017-10-25T00:19:21.510Z,4.50
2017-10-25T00:21:48.972Z,5.87
2017-10-25T00:24:16.456Z,5.43
2017-10-25T00:26:45.563Z,5.63
2017-10-25T00:29:13.031Z,4.97
2017-10-25T00:31:40.495Z,4.30
2017-10-25T00:34:07.947Z,4.17
2017-10-25T00:36:36.384Z,3.83
2017-10-25T00:39:04.634Z,4.27
2017-10-25T00:41:32.207Z,4.30
2017-10-25T00:43:59.784Z,4.83
2017-10-25T00:46:28.055Z,4.67
2017-10-25T00:48:56.277Z,4.43
2017-10-25T00:51:23.782Z,6.53
2017-10-25T00:53:51.255Z,4.70
2017-10-25T00:56:19.549Z,4.90
2017-10-25T00:58:47.007Z,5.90
2017-10-25T01:01:14.538Z,6.60
2017-10-25T01:03:42.776Z,7.00
2017-10-25T01:06:10.246Z,7.73
2017-10-25T01:08:37.730Z,7.57
2017-10-25T01:11:05.958Z,8.77
2017-10-25T01:13:33.460Z,7.97
2017-10-25T01:16:01.762Z,7.13
2017-10-25T01:18:29.256Z,6.90
2017-10-25T01:20:56.707Z,7.20
2017-10-25T01:23:24.192Z,7.63
2017-10-25T01:25:51.651Z,7.13
2017-10-25T01:28:19.120Z,6.40
2017-10-25T01:30:46.613Z,7.10
2017-10-25T01:33:15.015Z,7.00
2017-10-25T01:35:42.481Z,6.30
2017-10-25T01:38:09.983Z,6.60
2017-10-25T01:40:37.446Z,6.30
2017-10-25T01:43:04.920Z,5.10
2017-10-25T01:45:32.402Z,5.97
2017-10-25T01:47:59.875Z,5.90
2017-10-25T01:50:27.347Z,5.50
2017-10-25T01:52:55.207Z,5.23
2017-10-25T01:55:22.666Z,5.20
2017-10-25T01:57:51.739Z,5.20
2017-10-25T02:00:19.210Z,6.20
2017-10-25T02:02:46.692Z,4.97
2017-10-25T02:05:14.956Z,6.10
2017-10-25T02:07:43.195Z,6.17
2017-10-25T02:10:10.656Z,6.70
2017-10-25T02:12:38.232Z,6.40
2017-10-25T02:15:05.715Z,6.70
2017-10-25T02:17:33.956Z,5.97
2017-10-25T02:20:01.420Z,7.60
2017-10-25T02:22:28.887Z,6.53
2017-10-25T02:24:57.111Z,7.90
2017-10-25T02:27:24.579Z,7.00
2017-10-25T02:29:52.052Z,6.50
2017-10-25T02:32:19.595Z,6.47
2017-10-25T02:34:47.082Z,6.10
2017-10-25T02:37:14.556Z,6.20
2017-10-25T02:39:42.801Z,5.33
2017-10-25T02:42:10.261Z,5.33
2017-10-25T02:44:37.739Z,4.50
2017-10-25T02:47:06.011Z,4.90
2017-10-25T02:49:33.476Z,4.07
2017-10-25T02:52:01.728Z,3.90
2017-10-25T02:54:29.182Z,4.10
2017-10-25T02:56:56.649Z,3.70
2017-10-25T02:59:24.123Z,3.73
2017-10-25T03:01:53.385Z,4.03
2017-10-25T03:04:20.850Z,4.67
2017-10-25T03:06:48.310Z,4.23
2017-10-25T03:09:16.200Z,4.67
2017-10-25T03:11:44.428Z,5.43
2017-10-25T03:14:11.898Z,4.77
2017-10-25T03:16:39.376Z,4.13
2017-10-25T03:19:06.927Z,3.87
2017-10-25T03:21:34.400Z,4.30
2017-10-25T03:24:02.627Z,4.33
2017-10-25T03:26:30.090Z,5.10
2017-10-25T03:28:57.555Z,4.30
2017-10-25T03:31:25.036Z,5.40
2017-10-25T03:33:52.497Z,4.27
2017-10-25T03:36:20.760Z,5.20
2017-10-25T03:38:48.211Z,4.77
2017-10-25T03:41:16.394Z,4.83
2017-10-25T03:43:44.640Z,4.83
2017-10-25T03:46:12.095Z,5.00
2017-10-25T03:48:40.187Z,5.90
2017-10-25T03:51:07.759Z,5.73
2017-10-25T03:53:35.263Z,5.47
2017-10-25T03:56:02.726Z,5.80
2017-10-25T03:58:30.222Z,5.67
2017-10-25T04:00:57.695Z,5.03
2017-10-25T04:03:25.955Z,5.70
2017-10-25T04:05:53.432Z,5.50
2017-10-25T04:08:21.700Z,6.10
2017-10-25T04:10:49.965Z,5.30
2017-10-25T04:13:17.439Z,6.60
2017-10-25T04:15:45.675Z,6.17
2017-10-25T04:18:13.172Z,5.10
2017-10-25T04:20:40.695Z,6.30
2017-10-25T04:23:08.529Z,5.53
2017-10-25T04:25:36.035Z,5.80
2017-10-25T04:28:03.873Z,5.67
2017-10-25T04:30:31.351Z,5.97
2017-10-25T04:32:58.819Z,6.57
2017-10-25T04:35:27.063Z,6.40
2017-10-25T04:37:54.552Z,5.30
2017-10-25T04:40:23.519Z,6.53
2017-10-25T04:42:51.109Z,6.90
2017-10-25T04:45:18.571Z,8.43
2017-10-25T04:47:46.820Z,7.33
2017-10-25T04:50:14.396Z,8.17
2017-10-25T04:52:41.964Z,10.60
2017-10-25T04:55:10.221Z,12.03
2017-10-25T04:57:37.708Z,11.37
2017-10-25T05:00:05.940Z,11.20
2017-10-25T05:02:33.419Z,12.87
2017-10-25T05:05:00.892Z,13.27
2017-10-25T05:07:29.503Z,13.90
2017-10-25T05:09:56.979Z,13.10
2017-10-25T05:12:24.472Z,10.93
2017-10-25T05:14:51.970Z,9.17
2017-10-25T05:17:19.436Z,9.23
2017-10-25T05:19:46.896Z,8.90
2017-10-25T05:22:15.215Z,9.80
2017-10-25T05:24:42.675Z,9.63
2017-10-25T05:27:10.228Z,9.03
2017-10-25T05:29:37.714Z,8.57
2017-10-25T05:32:05.939Z,7.13
2017-10-25T05:34:35.048Z,8.23
2017-10-25T05:37:02.620Z,8.70
2017-10-25T05:39:30.846Z,8.63
2017-10-25T05:41:58.308Z,8.57
2017-10-25T05:44:25.825Z,7.97
2017-10-25T05:46:53.324Z,8.70
2017-10-25T05:49:20.780Z,7.40
2017-10-25T05:51:48.262Z,8.07
2017-10-25T05:54:15.723Z,10.73
2017-10-25T05:56:43.183Z,8.07
2017-10-25T05:59:10.658Z,7.50
2017-10-25T06:01:38.875Z,7.80
2017-10-25T06:04:06.431Z,8.30
2017-10-25T06:06:33.932Z,7.40
2017-10-25T06:09:01.495Z,7.87
2017-10-25T06:11:29.058Z,7.23
2017-10-25T06:13:56.552Z,7.10
2017-10-25T06:16:24.024Z,7.40
2017-10-25T06:18:51.483Z,8.60
2017-10-25T06:21:18.982Z,8.80
2017-10-25T06:23:46.539Z,10.03
2017-10-25T06:26:14.003Z,9.83
2017-10-25T06:28:41.475Z,10.60
2017-10-25T06:31:09.714Z,9.77
2017-10-25T06:33:37.176Z,9.90
2017-10-25T06:36:04.646Z,11.10
2017-10-25T06:38:32.112Z,8.93
2017-10-25T06:41:00.378Z,8.13
2017-10-25T06:43:27.931Z,8.80
2017-10-25T06:45:55.750Z,9.67
2017-10-25T06:48:23.208Z,8.03
2017-10-25T06:50:50.724Z,8.80
2017-10-25T06:53:18.180Z,8.87
2017-10-25T06:55:45.639Z,7.30
2017-10-25T06:58:14.520Z,7.53
2017-10-25T07:00:41.978Z,7.73
2017-10-25T07:03:09.463Z,6.57
2017-10-25T07:05:36.986Z,7.93
2017-10-25T07:08:04.836Z,8.50
2017-10-25T07:10:32.311Z,8.83
2017-10-25T07:13:00.567Z,7.93
2017-10-25T07:15:28.027Z,7.03
2017-10-25T07:17:55.603Z,6.97
2017-10-25T07:20:23.148Z,7.10
2017-10-25T07:22:50.635Z,7.37
2017-10-25T07:25:18.884Z,6.47
2017-10-25T07:27:46.346Z,7.23
2017-10-25T07:30:15.843Z,8.33
2017-10-25T07:32:43.304Z,6.23
2017-10-25T07:35:11.126Z,6.03
2017-10-25T07:37:38.588Z,6.20
2017-10-25T07:40:06.072Z,5.50
2017-10-25T07:42:33.552Z,7.00
2017-10-25T07:45:01.046Z,6.30
2017-10-25T07:47:28.519Z,5.97
2017-10-25T07:49:56.000Z,6.37
2017-10-25T07:52:23.485Z,6.10
2017-10-25T07:54:50.954Z,5.50
2017-10-25T07:57:19.200Z,6.37
2017-10-25T07:59:46.671Z,5.93
2017-10-25T08:02:14.228Z,5.90
2017-10-25T08:04:41.780Z,5.80
2017-10-25T08:07:09.280Z,6.03
2017-10-25T08:09:36.746Z,6.80
2017-10-25T08:12:04.222Z,6.20
2017-10-25T08:14:31.694Z,6.03
2017-10-25T08:16:59.168Z,6.20
2017-10-25T08:19:26.643Z,6.57
2017-10-25T08:21:54.883Z,6.47
2017-10-25T08:24:22.343Z,5.80
2017-10-25T08:26:49.823Z,5.17
2017-10-25T08:29:18.059Z,6.57
2017-10-25T08:31:45.539Z,7.00
2017-10-25T08:34:13.412Z,6.07
2017-10-25T08:36:40.881Z,6.83
2017-10-25T08:39:09.165Z,6.70
2017-10-25T08:41:37.543Z,6.40
2017-10-25T08:44:05.104Z,5.80
2017-10-25T08:46:32.563Z,5.30
2017-10-25T08:49:00.098Z,6.40
2017-10-25T08:51:27.554Z,7.43
2017-10-25T08:53:55.613Z,5.57
2017-10-25T08:56:23.100Z,5.93
2017-10-25T08:58:51.348Z,6.30
2017-10-25T09:01:18.909Z,6.03
2017-10-25T09:03:46.386Z,7.00
2017-10-25T09:06:14.723Z,6.13
2017-10-25T09:08:42.203Z,6.87
2017-10-25T09:11:09.698Z,6.50
2017-10-25T09:13:37.175Z,5.73
2017-10-25T09:16:04.660Z,7.67
2017-10-25T09:18:32.346Z,6.97
2017-10-25T09:21:00.572Z,7.00
2017-10-25T09:23:28.056Z,6.83
2017-10-25T09:25:56.210Z,7.73
2017-10-25T09:28:23.700Z,5.03
2017-10-25T09:30:51.173Z,6.73
2017-10-25T09:33:19.420Z,5.97
2017-10-25T09:35:46.881Z,6.63
2017-10-25T09:38:15.110Z,5.57
2017-10-25T09:40:42.575Z,6.30
2017-10-25T09:43:10.072Z,6.60
2017-10-25T09:45:37.550Z,6.40
2017-10-25T09:48:05.810Z,5.53
2017-10-25T09:50:33.367Z,6.37
2017-10-25T09:53:00.836Z,6.93
2017-10-25T09:55:29.078Z,6.03
2017-10-25T09:57:56.551Z,6.40
2017-10-25T10:00:24.843Z,5.37
2017-10-25T10:02:53.082Z,6.37
2017-10-25T10:05:20.560Z,5.27
2017-10-25T10:07:48.799Z,5.57
2017-10-25T10:10:17.123Z,6.77
2017-10-25T10:12:46.204Z,6.30
2017-10-25T10:15:13.686Z,6.10
2017-10-25T10:17:41.919Z,5.37
2017-10-25T10:20:10.164Z,5.57
2017-10-25T10:22:37.676Z,5.20
2017-10-25T10:25:05.238Z,4.97
2017-10-25T10:27:32.717Z,5.47
2017-10-25T10:30:00.204Z,5.67
2017-10-25T10:32:27.689Z,5.53
2017-10-25T10:34:55.148Z,4.17
2017-10-25T10:37:22.624Z,5.00
2017-10-25T10:39:50.100Z,5.83
2017-10-25T10:42:18.352Z,4.53
2017-10-25T10:44:46.677Z,5.07
2017-10-25T10:47:15.588Z,3.97
2017-10-25T10:49:43.050Z,4.73
2017-10-25T10:52:11.452Z,7.30
2017-10-25T10:54:38.928Z,4.30
2017-10-25T10:57:07.168Z,4.30
2017-10-25T10:59:34.647Z,4.53
2017-10-25T11:02:02.917Z,3.70
2017-10-25T11:04:30.482Z,4.80
2017-10-25T11:06:57.943Z,4.87
2017-10-25T11:09:26.186Z,5.00
2017-10-25T11:11:53.773Z,5.10
2017-10-25T11:14:22.055Z,4.40
2017-10-25T11:16:50.287Z,4.20
2017-10-25T11:19:17.778Z,4.47
2017-10-25T11:21:45.340Z,4.60
2017-10-25T11:24:12.803Z,5.30
2017-10-25T11:26:41.033Z,4.00
2017-10-25T11:29:08.511Z,4.93
2017-10-25T11:31:37.565Z,4.13
2017-10-25T11:34:05.079Z,4.93
2017-10-25T11:36:32.556Z,3.93
2017-10-25T11:39:00.782Z,4.77
2017-10-25T11:41:28.240Z,3.60
2017-10-25T11:43:56.647Z,4.70
2017-10-25T11:46:24.883Z,4.70
2017-10-25T11:48:52.349Z,3.53
2017-10-25T11:51:19.818Z,4.63
2017-10-25T11:53:47.380Z,4.00
2017-10-25T11:56:15.863Z,4.10
2017-10-25T11:58:43.424Z,3.70
2017-10-25T12:01:11.622Z,3.50
2017-10-25T12:03:39.853Z,4.20
2017-10-25T12:06:07.328Z,3.33
2017-10-25T12:08:34.783Z,3.90
2017-10-25T12:11:02.343Z,3.60
2017-10-25T12:13:29.828Z,3.40
2017-10-25T12:15:58.055Z,3.90
2017-10-25T12:18:25.543Z,4.17
2017-10-25T12:20:53.787Z,3.90
2017-10-25T12:23:21.250Z,3.83
2017-10-25T12:25:48.720Z,5.20
2017-10-25T12:28:16.213Z,3.87
2017-10-25T12:30:43.673Z,3.23
2017-10-25T12:33:11.903Z,3.47
2017-10-25T12:35:39.375Z,4.17
2017-10-25T12:38:06.851Z,3.97
2017-10-25T12:40:35.084Z,3.80
2017-10-25T12:43:02.571Z,3.43
2017-10-25T12:45:30.816Z,3.30
2017-10-25T12:47:58.276Z,4.30
2017-10-25T12:50:25.758Z,3.80
2017-10-25T12:52:53.234Z,2.93
2017-10-25T12:55:21.472Z,3.50
2017-10-25T12:57:48.949Z,4.40
2017-10-25T13:00:17.192Z,3.53
2017-10-25T13:02:44.666Z,3.20
2017-10-25T13:05:12.124Z,4.40
2017-10-25T13:07:40.221Z,4.27
2017-10-25T13:10:27.160Z,3.60
2017-10-25T13:16:39.197Z,3.73
2017-10-25T13:19:06.650Z,3.47
2017-10-25T13:21:34.129Z,3.27
2017-10-25T13:24:01.617Z,3.70
2017-10-25T13:26:29.845Z,4.40
2017-10-25T13:28:57.309Z,4.47
2017-10-25T13:31:24.791Z,4.97
2017-10-25T13:33:52.256Z,3.97
2017-10-25T13:36:21.106Z,4.20
2017-10-25T13:38:48.583Z,4.00
2017-10-25T13:41:16.045Z,3.77
2017-10-25T13:43:43.503Z,4.70
2017-10-25T13:46:10.976Z,4.00
2017-10-25T13:48:39.212Z,3.80
2017-10-25T13:51:06.711Z,4.00
2017-10-25T13:53:34.262Z,4.10
2017-10-25T13:56:02.488Z,3.90
2017-10-25T13:58:29.963Z,3.03
2017-10-25T14:00:57.511Z,3.70
2017-10-25T14:03:24.964Z,3.67
2017-10-25T14:05:52.435Z,3.50
2017-10-25T14:08:19.908Z,3.63
2017-10-25T14:10:47.420Z,3.60
2017-10-25T14:13:15.575Z,4.40
2017-10-25T14:15:43.067Z,4.50
2017-10-25T14:18:10.537Z,4.37
2017-10-25T14:20:37.996Z,2.40
2017-10-25T14:23:05.475Z,2.40
2017-10-25T14:25:32.944Z,2.07
2017-10-25T14:28:12.860Z,1.80
2017-10-25T14:30:40.325Z,1.97
2017-10-25T14:33:07.802Z,2.23
2017-10-25T14:35:36.057Z,2.23
2017-10-25T14:38:03.533Z,2.20
2017-10-25T14:40:31.762Z,2.07
2017-10-25T14:42:59.263Z,2.00
2017-10-25T14:45:27.526Z,1.97
2017-10-25T14:47:54.979Z,1.80
2017-10-25T14:50:22.459Z,1.70
2017-10-25T14:52:50.755Z,1.50
2017-10-25T14:55:18.203Z,1.80
2017-10-25T14:57:45.675Z,1.77
2017-10-25T15:00:13.130Z,1.70
2017-10-25T15:02:40.593Z,2.17
2017-10-25T15:05:08.074Z,1.40
2017-10-25T15:07:35.547Z,1.70
2017-10-25T15:10:03.013Z,1.50
2017-10-25T15:12:30.479Z,1.70
2017-10-25T15:14:58.703Z,1.77
2017-10-25T15:17:26.171Z,1.53
2017-10-25T15:19:53.644Z,1.50
2017-10-25T15:22:21.112Z,1.70
2017-10-25T15:24:48.611Z,1.30
2017-10-25T15:27:16.073Z,1.27
2017-10-25T15:29:43.542Z,1.30
2017-10-25T15:32:11.003Z,0.97
2017-10-25T15:34:38.481Z,1.17
2017-10-25T15:37:05.940Z,1.93
2017-10-25T15:39:33.392Z,1.60
2017-10-25T15:42:00.868Z,1.90
2017-10-25T15:44:28.327Z,1.30
2017-10-25T15:46:55.787Z,1.50
2017-10-25T15:49:23.272Z,1.67
2017-10-25T15:51:50.736Z,1.60
2017-10-25T15:54:18.196Z,1.50
2017-10-25T15:56:45.667Z,1.90
2017-10-25T15:59:13.358Z,1.40
2017-10-25T16:01:40.808Z,1.70
2017-10-25T16:04:08.298Z,1.90
2017-10-25T16:06:36.520Z,2.30
2017-10-25T16:09:03.991Z,1.77
2017-10-25T16:11:31.459Z,1.80
2017-10-25T16:13:58.907Z,1.50
2017-10-25T16:16:26.378Z,1.60
2017-10-25T16:18:53.847Z,1.47
2017-10-25T16:21:21.308Z,1.57
2017-10-25T16:23:49.563Z,1.60
2017-10-25T16:26:17.036Z,1.60
2017-10-25T16:28:44.490Z,1.43
2017-10-25T16:31:11.946Z,2.00
2017-10-25T16:33:39.518Z,1.60
2017-10-25T16:36:07.753Z,1.20
2017-10-25T16:38:35.215Z,1.07
2017-10-25T16:41:02.699Z,1.60
2017-10-25T16:43:30.176Z,1.70
2017-10-25T16:45:58.409Z,1.40
2017-10-25T16:48:25.887Z,1.53
2017-10-25T16:50:53.374Z,1.67
2017-10-25T16:53:20.847Z,1.27
2017-10-25T16:55:48.312Z,1.10
2017-10-25T16:58:15.850Z,1.90
2017-10-25T17:00:43.332Z,1.80
2017-10-25T17:03:10.801Z,1.87
2017-10-25T17:05:38.285Z,2.30
2017-10-25T17:08:05.740Z,1.80
2017-10-25T17:10:33.991Z,1.80
2017-10-25T17:13:01.492Z,1.80
2017-10-25T17:15:29.711Z,1.90
2017-10-25T17:17:57.174Z,2.10
2017-10-25T17:20:24.647Z,1.60
2017-10-25T17:22:52.992Z,1.70
2017-10-25T17:25:20.453Z,1.67
2017-10-25T17:27:47.932Z,1.30
2017-10-25T17:30:15.899Z,1.50
2017-10-25T17:32:43.381Z,1.20
2017-10-25T17:35:10.912Z,1.50
2017-10-25T17:37:38.367Z,1.53
2017-10-25T17:40:05.839Z,1.20
2017-10-25T17:42:33.294Z,1.40
2017-10-25T17:45:00.803Z,1.90
2017-10-25T17:47:28.292Z,1.50
2017-10-25T17:49:55.767Z,1.40
2017-10-25T17:52:23.231Z,1.63
2017-10-25T17:54:52.304Z,2.27
2017-10-25T17:57:19.764Z,1.90
2017-10-25T17:59:47.215Z,1.53
2017-10-25T18:02:14.696Z,2.07
2017-10-25T18:04:42.179Z,1.33
2017-10-25T18:07:10.430Z,1.33
2017-10-25T18:09:37.896Z,1.40
2017-10-25T18:12:06.127Z,2.00
2017-10-25T18:14:33.603Z,2.47
2017-10-25T18:17:01.078Z,1.43
2017-10-25T18:19:28.585Z,2.13
2017-10-25T18:21:56.057Z,2.20
2017-10-25T18:24:23.576Z,1.80
2017-10-25T18:26:51.700Z,2.57
2017-10-25T18:29:19.173Z,1.90
2017-10-25T18:31:46.649Z,2.23
2017-10-25T18:34:14.895Z,1.70
2017-10-25T18:36:42.363Z,2.10
2017-10-25T18:39:09.843Z,1.93
2017-10-25T18:41:38.059Z,1.77
2017-10-25T18:44:05.524Z,2.03
2017-10-25T18:46:33.004Z,2.10
2017-10-25T18:49:01.460Z,1.80
2017-10-25T18:51:28.920Z,3.03
2017-10-25T18:53:56.464Z,2.50
2017-10-25T18:56:23.928Z,2.03
2017-10-25T18:58:51.439Z,1.70
2017-10-25T19:01:19.679Z,2.57
2017-10-25T19:03:47.145Z,4.17
2017-10-25T19:06:14.620Z,4.07
2017-10-25T19:08:42.912Z,3.87
2017-10-25T19:11:10.378Z,3.70
2017-10-25T19:13:37.831Z,2.90
2017-10-25T19:16:05.315Z,3.50
2017-10-25T19:18:32.792Z,4.47
2017-10-25T19:21:00.248Z,4.77
2017-10-25T19:23:27.733Z,4.97
2017-10-25T19:25:55.980Z,3.87
2017-10-25T19:28:23.447Z,4.07
2017-10-25T19:30:50.926Z,4.43
2017-10-25T19:33:19.148Z,4.30
2017-10-25T19:35:46.611Z,6.70
2017-10-25T19:38:14.825Z,8.17
2017-10-25T19:40:42.287Z,8.87
2017-10-25T19:43:10.515Z,9.00
2017-10-25T19:45:37.987Z,9.80
2017-10-25T19:48:05.455Z,10.83
2017-10-25T19:50:32.915Z,11.63
2017-10-25T19:53:00.403Z,12.37
2017-10-25T19:55:28.631Z,12.33
2017-10-25T19:57:56.092Z,13.00
2017-10-25T20:00:23.581Z,13.40
2017-10-25T20:02:52.585Z,14.67
2017-10-25T20:05:20.047Z,13.23
2017-10-25T20:07:47.572Z,14.50
2017-10-25T20:10:15.555Z,15.93
2017-10-25T20:12:43.793Z,14.87
2017-10-25T20:15:11.319Z,14.27
2017-10-25T20:17:38.793Z,17.70
2017-10-25T20:20:07.101Z,16.70
2017-10-25T20:22:34.619Z,17.20
2017-10-25T20:25:02.075Z,17.17
2017-10-25T20:27:29.559Z,18.87
2017-10-25T20:29:57.799Z,17.17
2017-10-25T20:32:25.264Z,16.00
2017-10-25T20:34:52.719Z,16.80
2017-10-25T20:37:20.217Z,17.37
2017-10-25T20:39:47.718Z,17.50
2017-10-25T20:42:15.208Z,16.60
2017-10-25T20:44:42.695Z,15.90
2017-10-25T20:47:10.178Z,15.50
2017-10-25T20:49:37.705Z,14.70
2017-10-25T20:52:05.187Z,16.17
2017-10-25T20:54:33.423Z,16.80
2017-10-25T20:57:00.926Z,15.43
2017-10-25T20:59:29.174Z,15.27
2017-10-25T21:01:56.648Z,16.10
2017-10-25T21:04:24.892Z,15.40
2017-10-25T21:06:52.375Z,13.20
2017-10-25T21:09:20.619Z,14.80
2017-10-25T21:11:48.103Z,13.00
2017-10-25T21:14:16.348Z,19.50
2017-10-25T21:16:43.819Z,18.00
2017-10-25T21:19:11.292Z,17.57
2017-10-25T21:21:39.544Z,16.33
2017-10-25T21:24:07.019Z,18.20
2017-10-25T21:26:34.495Z,22.57
2017-10-25T21:29:02.739Z,21.60
2017-10-25T21:31:32.072Z,20.30
2017-10-25T21:34:00.312Z,20.67
2017-10-25T21:36:27.777Z,21.70
2017-10-25T21:38:55.264Z,23.47
2017-10-25T21:41:23.528Z,25.57
2017-10-25T21:43:51.774Z,25.90
2017-10-25T21:46:19.248Z,25.47
2017-10-25T21:48:47.526Z,27.77
2017-10-25T21:51:15.111Z,32.17
2017-10-25T21:53:43.405Z,28.23
2017-10-25T21:56:10.883Z,28.60
2017-10-25T21:58:38.788Z,28.83
2017-10-25T22:01:07.124Z,32.37
2017-10-25T22:03:34.628Z,33.50
2017-10-25T22:06:02.875Z,36.60
2017-10-25T22:08:30.439Z,36.80
2017-10-25T22:10:57.920Z,38.77
2017-10-25T22:13:26.163Z,39.03
2017-10-25T22:15:54.328Z,33.47
2017-10-25T22:18:21.822Z,39.07
2017-10-25T22:20:50.399Z,37.73
2017-10-25T22:23:18.686Z,36.10
2017-10-25T22:25:47.123Z,43.20
2017-10-25T22:28:15.911Z,38.80
2017-10-25T22:30:43.599Z,40.97
2017-10-25T22:33:11.151Z,35.40
2017-10-25T22:35:38.651Z,37.17
2017-10-25T22:38:06.134Z,41.63
2017-10-25T22:40:33.622Z,38.10
2017-10-25T22:43:01.904Z,40.80
2017-10-25T22:45:29.402Z,46.40
2017-10-25T22:47:56.886Z,41.37
2017-10-25T22:50:24.355Z,40.33
2017-10-25T22:52:51.927Z,41.40
2017-10-25T22:55:19.404Z,35.87
2017-10-25T22:57:47.660Z,40.50
2017-10-25T23:02:49.034Z,38.53
2017-10-25T23:05:16.587Z,41.47
2017-10-25T23:07:44.059Z,39.00
2017-10-25T23:10:12.308Z,38.63
2017-10-25T23:12:39.879Z,40.20
2017-10-25T23:15:07.439Z,42.03
2017-10-25T23:17:35.512Z,46.47
2017-10-25T23:20:03.775Z,39.93
2017-10-25T23:22:31.275Z,42.30
2017-10-25T23:24:59.413Z,39.80
2017-10-25T23:27:26.896Z,41.73
2017-10-25T23:29:55.144Z,44.97
2017-10-25T23:32:22.644Z,40.83
2017-10-25T23:34:50.112Z,41.30
2017-10-25T23:37:18.216Z,45.17
2017-10-25T23:39:45.696Z,39.97
2017-10-25T23:42:13.251Z,47.97
2017-10-25T23:44:40.810Z,44.33
2017-10-25T23:47:08.287Z,44.83
2017-10-25T23:49:36.728Z,42.87
2017-10-25T23:52:04.296Z,44.77
2017-10-25T23:54:31.859Z,41.27
2017-10-25T23:56:59.363Z,42.30
2017-10-25T23:59:26.832Z,37.97
